Time;durP1;ratioP1;P1;durP2;ratioP2;P2;SDS_P1;SDS_P2;PMS_P1;PMS_P2;Temp;Humidity;BMP_temperature;BMP_pressure;BME280_temperature;BME280_humidity;BME280_pressure;Samples;Min_cycle;Max_cycle;Signal;HPM_P1;HPM_P2
2021/12/17 00:07:29;;;;;;;5.65;1.13;;;5.50;99.90;;;;;;4879645;29;20057;-63
2021/12/17 00:10:00;;;;;;;6.22;2.05;;;5.50;99.90;;;;;;4879628;29;20056;-64
2021/12/17 00:12:28;;;;;;;2.17;0.98;;;5.50;99.90;;;;;;4879209;29;20044;-64
2021/12/17 00:14:57;;;;;;;4.80;1.48;;;5.50;99.90;;;;;;4879361;29;20040;-64
2021/12/17 00:17:30;;;;;;;11.93;2.03;;;5.50;99.90;;;;;;4877777;29;20140;-65
2021/12/17 00:20:24;;;;;;;5.97;1.80;;;5.50;99.90;;;;;;4878077;29;20064;-63
2021/12/17 00:53:18;;;;;;;5.57;1.05;;;5.70;99.90;;;;;;4869067;29;20044;-65
2021/12/17 00:55:46;;;;;;;2.47;1.58;;;5.70;99.90;;;;;;4868079;29;20061;-64
2021/12/17 00:58:13;;;;;;;9.68;1.92;;;5.70;99.90;;;;;;4866455;29;20060;-64
2021/12/17 01:00:40;;;;;;;5.13;1.00;;;5.70;99.90;;;;;;4867224;29;20093;-65
2021/12/17 01:03:07;;;;;;;3.72;1.95;;;5.70;99.90;;;;;;4866967;29;20053;-64
2021/12/17 01:05:36;;;;;;;6.55;1.48;;;5.70;99.90;;;;;;4890824;29;20052;-65
2021/12/17 01:08:05;;;;;;;4.05;1.50;;;5.70;99.90;;;;;;4894331;29;20099;-64
2021/12/17 01:10:36;;;;;;;5.95;1.13;;;5.70;99.90;;;;;;4876340;29;20053;-63
2021/12/17 01:13:41;;;;;;;4.32;0.93;;;5.70;99.90;;;;;;4891334;29;20048;-64
2021/12/17 01:16:37;;;;;;;5.72;1.35;;;5.70;99.90;;;;;;4874446;29;20052;-64
2021/12/17 01:20:06;;;;;;;7.75;2.33;;;5.60;99.90;;;;;;4874412;29;20859;-64
2021/12/17 01:25:35;;;;;;;4.00;0.88;;;5.60;99.90;;;;;;4875971;29;20057;-62
2021/12/17 01:43:18;;;;;;;4.65;1.60;;;5.60;99.90;;;;;;4867546;29;20414;-65
2021/12/17 01:45:46;;;;;;;4.68;0.85;;;5.50;99.90;;;;;;4875121;29;20120;-66
2021/12/17 01:48:19;;;;;;;5.72;1.00;;;5.50;99.90;;;;;;4877248;29;20044;-65
2021/12/17 01:56:39;;;;;;;13.05;3.15;;;5.50;99.90;;;;;;4877415;29;20574;-64
2021/12/17 02:02:09;;;;;;;3.17;1.15;;;5.50;99.90;;;;;;4858364;29;20053;-65
2021/12/17 02:04:37;;;;;;;14.82;1.73;;;5.50;99.90;;;;;;4876849;29;20060;-66
2021/12/17 02:07:05;;;;;;;7.28;1.55;;;5.50;99.90;;;;;;4874738;29;20116;-65
2021/12/17 02:20:40;;;;;;;2.88;1.45;;;5.40;99.90;;;;;;4875517;29;20119;-64
2021/12/17 02:28:48;;;;;;;5.72;1.58;;;5.40;99.90;;;;;;4891828;29;20053;-63
2021/12/17 02:33:46;;;;;;;4.28;1.73;;;5.40;99.90;;;;;;4891803;29;20144;-66
2021/12/17 02:36:17;;;;;;;7.20;1.90;;;5.40;99.90;;;;;;4876764;29;20177;-65
2021/12/17 02:38:44;;;;;;;4.72;0.93;;;5.40;99.90;;;;;;4890731;29;20053;-67
2021/12/17 02:47:15;;;;;;;10.20;1.55;;;5.40;99.90;;;;;;4875563;29;20064;-65
2021/12/17 02:49:45;;;;;;;7.13;1.83;;;5.40;99.90;;;;;;4874114;29;20048;-64
2021/12/17 02:52:15;;;;;;;15.55;3.25;;;5.40;99.90;;;;;;4877322;29;20403;-67
2021/12/17 02:54:42;;;;;;;6.38;1.58;;;5.40;99.90;;;;;;4892598;29;20065;-64
2021/12/17 02:57:11;;;;;;;5.57;2.00;;;5.40;99.90;;;;;;4876602;29;20799;-67
2021/12/17 02:59:39;;;;;;;4.95;1.20;;;5.40;99.90;;;;;;4874988;29;20574;-66
2021/12/17 03:02:08;;;;;;;9.43;1.42;;;5.40;99.90;;;;;;4876527;29;20056;-65
2021/12/17 03:04:40;;;;;;;3.67;0.90;;;5.50;99.90;;;;;;4876587;29;20053;-65
2021/12/17 03:07:13;;;;;;;7.85;1.23;;;5.40;99.90;;;;;;4875900;29;20064;-66
2021/12/17 03:12:18;;;;;;;5.00;1.35;;;5.40;99.90;;;;;;4891243;29;20072;-68
2021/12/17 03:14:59;;;;;;;8.63;1.92;;;5.40;99.90;;;;;;4875515;29;21752;-66
2021/12/17 03:25:43;;;;;;;6.50;1.40;;;5.40;99.90;;;;;;4874439;29;20053;-67
2021/12/17 03:28:11;;;;;;;10.82;1.33;;;5.40;99.90;;;;;;4874028;29;20052;-65
2021/12/17 03:30:38;;;;;;;4.03;1.23;;;5.40;99.90;;;;;;4888302;29;20400;-65
2021/12/17 03:33:05;;;;;;;9.63;2.60;;;5.40;99.90;;;;;;4872598;29;20160;-64
2021/12/17 03:35:32;;;;;;;6.35;1.90;;;5.40;99.90;;;;;;4875289;29;20060;-65
2021/12/17 03:38:00;;;;;;;8.57;2.58;;;5.40;99.90;;;;;;4875008;29;20112;-66
2021/12/17 03:40:28;;;;;;;6.13;1.40;;;5.40;99.90;;;;;;4892529;29;20053;-65
2021/12/17 03:43:01;;;;;;;2.35;1.10;;;5.30;99.90;;;;;;4873873;29;20044;-64
2021/12/17 03:45:30;;;;;;;2.85;1.60;;;5.40;99.90;;;;;;4891990;29;20056;-66
2021/12/17 03:48:04;;;;;;;2.60;0.82;;;5.30;99.90;;;;;;4875572;29;20455;-67
2021/12/17 03:50:35;;;;;;;10.77;2.13;;;5.30;99.90;;;;;;4875526;29;20052;-65
2021/12/17 03:53:05;;;;;;;1.17;1.05;;;5.40;99.90;;;;;;4878886;29;21072;-66
2021/12/17 03:55:34;;;;;;;13.88;1.92;;;5.40;99.90;;;;;;4877918;29;20053;-65
2021/12/17 03:58:04;;;;;;;3.28;1.08;;;5.40;99.90;;;;;;4878142;29;20705;-66
2021/12/17 04:00:34;;;;;;;;;;;5.40;99.90;;;;;;4893552;29;20565;-68
2021/12/17 04:03:03;;;;;;;3.90;1.42;;;5.40;99.90;;;;;;4891875;29;20679;-67
2021/12/17 04:05:46;;;;;;;3.70;1.48;;;5.40;99.90;;;;;;4877827;29;20048;-66
2021/12/17 04:08:48;;;;;;;8.82;1.67;;;5.40;99.90;;;;;;4877725;29;20290;-66
2021/12/17 04:11:34;;;;;;;3.22;1.02;;;5.40;99.90;;;;;;4895690;29;20057;-66
2021/12/17 04:14:11;;;;;;;5.95;1.00;;;5.40;99.90;;;;;;4891531;29;20078;-67
2021/12/17 04:16:50;;;;;;;6.60;0.88;;;5.40;99.90;;;;;;4878933;29;20071;-67
2021/12/17 04:19:17;;;;;;;6.80;1.38;;;5.40;99.90;;;;;;4892696;29;20055;-66
2021/12/17 04:21:45;;;;;;;6.40;1.48;;;5.40;99.90;;;;;;4878944;29;20052;-67
2021/12/17 04:24:12;;;;;;;5.32;1.40;;;5.30;99.90;;;;;;4861648;29;20048;-65
2021/12/17 04:26:41;;;;;;;7.22;1.42;;;5.40;99.90;;;;;;4877641;29;20112;-65
2021/12/17 04:29:15;;;;;;;2.58;1.08;;;5.40;99.90;;;;;;4878302;29;20746;-67
2021/12/17 04:31:43;;;;;;;7.20;1.35;;;5.40;99.90;;;;;;4894257;29;21112;-64
2021/12/17 04:34:12;;;;;;;8.93;2.83;;;5.30;99.90;;;;;;4894384;29;20052;-65
2021/12/17 04:36:39;;;;;;;7.30;2.45;;;5.30;99.90;;;;;;4876635;29;20746;-67
2021/12/17 04:39:20;;;;;;;4.05;1.02;;;5.30;99.90;;;;;;4894677;29;20056;-66
2021/12/17 04:42:02;;;;;;;6.85;1.02;;;5.40;99.90;;;;;;4879837;29;20048;-64
2021/12/17 04:44:35;;;;;;;4.75;1.17;;;5.30;99.90;;;;;;4875785;29;20084;-67
2021/12/17 04:58:01;;;;;;;2.47;1.08;;;5.30;99.90;;;;;;4894775;29;20076;-68
2021/12/17 05:00:30;;;;;;;7.00;1.65;;;5.30;99.90;;;;;;4891433;29;20143;-65
2021/12/17 05:03:16;;;;;;;5.78;1.15;;;5.30;99.90;;;;;;4892585;29;20404;-65
2021/12/17 05:05:46;;;;;;;11.50;2.50;;;5.30;99.90;;;;;;4892930;29;20044;-64
2021/12/17 05:08:24;;;;;;;3.17;1.52;;;5.30;99.90;;;;;;4873862;29;20056;-64
2021/12/17 05:21:45;;;;;;;5.78;1.23;;;5.30;99.90;;;;;;4852036;29;20065;-65
2021/12/17 05:24:12;;;;;;;6.40;1.92;;;5.20;99.90;;;;;;4876914;29;20052;-67
2021/12/17 05:26:40;;;;;;;9.98;2.10;;;5.20;99.90;;;;;;4874165;29;20221;-68
2021/12/17 05:29:07;;;;;;;11.40;1.80;;;5.20;99.90;;;;;;4875931;29;20525;-65
2021/12/17 05:31:39;;;;;;;4.70;1.20;;;5.20;99.90;;;;;;4875904;29;20445;-65
2021/12/17 05:34:07;;;;;;;3.22;1.33;;;5.20;99.90;;;;;;4892331;29;20076;-66
2021/12/17 05:36:45;;;;;;;6.95;2.35;;;5.10;99.90;;;;;;4873151;29;21743;-66
2021/12/17 05:39:19;;;;;;;6.85;1.52;;;5.10;99.90;;;;;;4894726;29;20056;-70
2021/12/17 05:41:47;;;;;;;7.68;2.75;;;5.10;99.90;;;;;;4891647;29;20053;-65
2021/12/17 05:44:32;;;;;;;3.45;1.17;;;5.10;99.90;;;;;;4877011;29;20071;-66
2021/12/17 05:47:01;;;;;;;4.40;1.10;;;5.10;99.90;;;;;;4874967;29;20052;-66
2021/12/17 05:49:29;;;;;;;2.88;1.38;;;5.10;99.90;;;;;;4893497;29;20066;-65
2021/12/17 05:52:00;;;;;;;5.18;1.58;;;5.10;99.90;;;;;;4876967;29;20104;-65
2021/12/17 05:54:29;;;;;;;3.95;1.38;;;5.10;99.90;;;;;;4892743;29;20056;-66
2021/12/17 05:56:57;;;;;;;4.03;1.42;;;5.10;99.90;;;;;;4876640;29;20059;-66
2021/12/17 05:59:33;;;;;;;6.78;0.90;;;5.00;99.90;;;;;;4875893;29;20076;-66
2021/12/17 06:02:04;;;;;;;2.80;1.27;;;5.00;99.90;;;;;;4876120;29;20526;-65
2021/12/17 06:04:31;;;;;;;;;;;5.10;99.90;;;;;;4876080;29;20055;-65
2021/12/17 06:07:03;;;;;;;4.10;1.10;;;5.00;99.90;;;;;;4891078;29;19986;-67
2021/12/17 06:09:31;;;;;;;9.02;1.20;;;5.00;99.90;;;;;;4893581;29;20112;-68
2021/12/17 06:12:01;;;;;;;5.68;1.50;;;5.00;99.90;;;;;;4890381;29;20184;-66
2021/12/17 06:14:30;;;;;;;3.08;1.00;;;5.00;99.90;;;;;;4892713;29;20055;-64
2021/12/17 06:16:58;;;;;;;8.88;1.92;;;5.00;99.90;;;;;;4874716;29;20178;-65
2021/12/17 06:19:33;;;;;;;5.93;1.95;;;5.00;99.90;;;;;;4894024;29;20054;-64
2021/12/17 06:22:00;;;;;;;12.32;2.13;;;5.00;99.90;;;;;;4875898;29;20605;-64
2021/12/17 06:24:30;;;;;;;5.63;1.60;;;5.00;99.90;;;;;;4875516;29;20112;-64
2021/12/17 06:26:58;;;;;;;4.43;1.80;;;5.00;99.90;;;;;;4876454;29;20119;-65
2021/12/17 06:29:26;;;;;;;2.30;0.93;;;4.90;99.90;;;;;;4892020;29;20190;-64
2021/12/17 06:32:01;;;;;;;9.27;1.52;;;5.00;99.90;;;;;;4876201;29;20063;-64
2021/12/17 06:34:28;;;;;;;2.97;1.35;;;5.00;99.90;;;;;;4891593;29;20052;-64
2021/12/17 06:36:57;;;;;;;5.47;1.63;;;5.00;99.90;;;;;;4875133;29;20059;-64
2021/12/17 06:39:24;;;;;;;6.65;1.48;;;4.90;99.90;;;;;;4892174;29;20139;-67
2021/12/17 06:41:51;;;;;;;5.75;1.58;;;4.90;99.90;;;;;;4876347;29;20053;-65
2021/12/17 06:44:23;;;;;;;4.47;1.10;;;4.90;99.90;;;;;;4891620;29;20127;-68
2021/12/17 06:58:57;;;;;;;10.40;2.88;;;4.90;99.90;;;;;;4868483;29;20041;-65
2021/12/17 07:10:45;;;;;;;10.68;2.13;;;4.90;99.90;;;;;;4876113;29;20432;-65
2021/12/17 07:40:10;;;;;;;7.45;1.67;;;4.90;99.90;;;;;;4877053;29;20083;-66
2021/12/17 07:42:45;;;;;;;18.20;4.10;;;5.00;99.90;;;;;;4896390;29;20053;-68
2021/12/17 07:45:23;;;;;;;6.32;1.80;;;5.00;99.90;;;;;;4877718;29;20900;-68
2021/12/17 07:47:58;;;;;;;5.43;0.73;;;5.00;99.90;;;;;;4879040;29;20056;-65
2021/12/17 07:50:31;;;;;;;9.93;1.55;;;5.00;99.90;;;;;;4878037;29;20044;-67
2021/12/17 07:53:18;;;;;;;10.80;1.88;;;5.00;99.90;;;;;;4895322;29;20491;-70
2021/12/17 07:55:55;;;;;;;3.47;1.17;;;5.00;99.90;;;;;;4892714;29;20060;-66
2021/12/17 07:58:23;;;;;;;6.10;1.15;;;5.00;99.90;;;;;;4895736;29;20048;-67
2021/12/17 08:00:50;;;;;;;6.00;1.20;;;5.00;99.90;;;;;;4877485;29;20060;-64
2021/12/17 08:03:18;;;;;;;7.85;1.67;;;5.00;99.90;;;;;;4878654;29;20061;-65
2021/12/17 08:06:08;;;;;;;;;;;5.00;99.90;;;;;;4868407;29;20995;-66
2021/12/17 08:08:53;;;;;;;8.30;1.48;;;5.00;99.90;;;;;;4896327;29;19946;-67
2021/12/17 08:11:25;;;;;;;8.70;2.83;;;5.00;99.90;;;;;;4893970;29;20056;-65
2021/12/17 08:13:55;;;;;;;7.90;1.02;;;5.00;99.90;;;;;;4874269;29;20068;-67
2021/12/17 08:23:07;;;;;;;6.93;3.13;;;5.00;99.90;;;;;;4893854;29;20052;-68
2021/12/17 08:24:51;;;;;;;3.78;1.02;;;5.00;99.90;;;;;;4894816;29;20215;-64
2021/12/17 08:32:43;;;;;;;3.95;1.83;;;5.00;99.90;;;;;;4893810;29;20049;-64
2021/12/17 08:35:12;;;;;;;5.30;2.20;;;5.00;99.90;;;;;;4890775;29;20597;-66
2021/12/17 08:37:40;;;;;;;12.60;2.22;;;5.00;99.90;;;;;;4893198;29;20052;-65
2021/12/17 08:40:08;;;;;;;7.30;1.52;;;5.00;99.90;;;;;;4892624;29;20061;-68
2021/12/17 08:42:42;;;;;;;6.78;2.10;;;5.00;99.90;;;;;;4876218;29;20061;-66
2021/12/17 08:45:10;;;;;;;7.13;1.85;;;5.00;99.90;;;;;;4875892;29;20079;-64
2021/12/17 08:47:47;;;;;;;8.55;2.15;;;5.00;99.90;;;;;;4879084;29;20135;-65
2021/12/17 08:50:37;;;;;;;5.78;1.88;;;5.00;99.90;;;;;;4876995;29;20072;-65
2021/12/17 08:53:07;;;;;;;4.70;1.23;;;5.00;99.90;;;;;;4893033;29;20072;-67
2021/12/17 08:55:34;;;;;;;7.65;2.08;;;5.10;99.90;;;;;;4878783;29;20527;-64
2021/12/17 08:58:01;;;;;;;10.27;2.53;;;5.10;99.90;;;;;;4875337;29;20160;-66
2021/12/17 09:00:29;;;;;;;6.30;1.58;;;5.00;99.90;;;;;;4894320;29;20155;-66
2021/12/17 09:03:03;;;;;;;8.18;1.48;;;5.00;99.90;;;;;;4893168;29;20078;-65
2021/12/17 09:05:56;;;;;;;8.65;2.05;;;5.00;99.90;;;;;;4877718;29;20044;-67
2021/12/17 09:08:32;;;;;;;7.03;1.45;;;5.00;99.90;;;;;;4873944;29;20053;-65
2021/12/17 09:11:00;;;;;;;10.68;1.90;;;5.00;99.90;;;;;;4878531;29;20083;-66
2021/12/17 09:13:44;;;;;;;8.77;1.85;;;5.00;99.90;;;;;;4878477;29;20151;-65
2021/12/17 09:16:13;;;;;;;8.18;1.75;;;5.10;99.90;;;;;;4873225;29;20713;-68
2021/12/17 09:18:41;;;;;;;6.35;2.03;;;5.10;99.90;;;;;;4882773;29;20550;-66
2021/12/17 09:21:34;;;;;;;5.43;1.50;;;5.10;99.90;;;;;;4875989;29;20060;-64
2021/12/17 09:24:07;;;;;;;9.00;1.15;;;5.10;99.90;;;;;;4894104;29;20048;-66
2021/12/17 09:26:55;;;;;;;9.57;1.75;;;5.10;99.90;;;;;;4878213;29;20124;-67
2021/12/17 09:29:28;;;;;;;7.78;2.13;;;5.10;99.90;;;;;;4892804;29;20080;-64
2021/12/17 09:31:55;;;;;;;13.23;1.45;;;5.10;99.90;;;;;;4878787;29;20056;-71
2021/12/17 09:34:22;;;;;;;7.82;2.17;;;5.10;99.90;;;;;;4875429;29;20977;-64
2021/12/17 09:36:49;;;;;;;7.40;1.45;;;5.10;99.90;;;;;;4878591;29;20061;-65
2021/12/17 09:39:18;;;;;;;7.53;1.70;;;5.10;99.90;;;;;;4877819;29;21600;-66
2021/12/17 09:41:50;;;;;;;6.97;1.33;;;5.10;99.90;;;;;;4878804;29;20049;-64
2021/12/17 09:44:18;;;;;;;5.95;1.92;;;5.10;99.90;;;;;;4877841;29;20049;-65
2021/12/17 09:46:47;;;;;;;14.07;2.92;;;5.10;99.90;;;;;;4875820;29;21072;-68
2021/12/17 09:49:17;;;;;;;10.25;2.00;;;5.20;99.90;;;;;;4878884;29;20057;-65
2021/12/17 09:51:46;;;;;;;9.43;1.40;;;5.20;99.90;;;;;;4876653;29;20052;-66
2021/12/17 09:54:14;;;;;;;7.80;2.22;;;5.20;99.90;;;;;;4878023;29;20055;-67
2021/12/17 09:56:41;;;;;;;4.38;1.38;;;5.20;99.90;;;;;;4875384;29;20112;-65
2021/12/17 09:59:09;;;;;;;5.38;1.85;;;5.20;99.90;;;;;;4877116;29;20049;-66
2021/12/17 10:01:38;;;;;;;5.72;2.22;;;5.20;99.90;;;;;;4876674;29;20068;-67
2021/12/17 10:04:29;;;;;;;12.63;2.03;;;5.20;99.90;;;;;;4877690;29;20150;-65
2021/12/17 10:07:16;;;;;;;2.28;1.52;;;5.20;99.90;;;;;;4875703;29;20060;-65
2021/12/17 10:09:51;;;;;;;9.93;2.75;;;5.20;99.90;;;;;;4877430;29;20052;-66
2021/12/17 10:12:23;;;;;;;11.70;2.38;;;5.20;99.90;;;;;;4878028;29;20057;-66
2021/12/17 10:15:05;;;;;;;11.00;2.60;;;5.20;99.90;;;;;;4874844;29;20057;-65
2021/12/17 10:17:35;;;;;;;8.02;1.30;;;5.20;99.90;;;;;;4877661;29;20567;-65
2021/12/17 10:20:05;;;;;;;8.27;1.52;;;5.30;99.90;;;;;;4877793;29;20076;-65
2021/12/17 10:22:32;;;;;;;6.05;2.33;;;5.20;99.90;;;;;;4877079;29;20048;-64
2021/12/17 10:25:06;;;;;;;3.63;0.90;;;5.20;99.90;;;;;;4875413;29;20329;-65
2021/12/17 10:27:36;;;;;;;11.07;2.20;;;5.20;99.90;;;;;;4877150;29;20060;-66
2021/12/17 10:30:18;;;;;;;6.65;1.45;;;5.20;99.90;;;;;;4875168;29;20589;-64
2021/12/17 10:32:50;;;;;;;7.63;2.28;;;5.20;99.90;;;;;;4876051;29;20060;-66
2021/12/17 10:35:21;;;;;;;6.18;1.33;;;5.20;99.90;;;;;;4874156;29;20159;-66
2021/12/17 10:37:57;;;;;;;3.88;1.40;;;5.20;99.90;;;;;;4875670;29;20071;-66
2021/12/17 10:43:36;;;;;;;10.63;1.50;;;5.20;99.90;;;;;;4875600;29;20060;-68
2021/12/17 10:46:28;;;;;;;6.75;1.20;;;5.20;99.90;;;;;;4876155;29;20053;-65
2021/12/17 10:49:18;;;;;;;6.13;1.58;;;5.20;99.90;;;;;;4875207;29;20057;-64
2021/12/17 10:51:47;;;;;;;4.70;1.92;;;5.20;99.90;;;;;;4873332;29;20329;-65
2021/12/17 10:54:21;;;;;;;8.45;1.45;;;5.20;99.90;;;;;;4877233;29;20044;-66
2021/12/17 10:56:54;;;;;;;7.15;1.67;;;5.20;99.90;;;;;;4875285;29;20056;-65
2021/12/17 10:59:23;;;;;;;7.18;2.22;;;5.20;99.90;;;;;;4875669;29;20056;-66
2021/12/17 11:01:59;;;;;;;5.80;1.30;;;5.20;99.90;;;;;;4879497;29;20053;-66
2021/12/17 11:04:31;;;;;;;11.45;1.50;;;5.20;99.90;;;;;;4876969;29;20059;-68
2021/12/17 11:07:07;;;;;;;12.05;1.52;;;5.20;99.90;;;;;;4880564;29;20049;-67
2021/12/17 11:10:00;;;;;;;5.28;1.38;;;5.20;99.90;;;;;;4877115;29;20056;-65
2021/12/17 11:12:30;;;;;;;6.80;1.70;;;5.20;99.90;;;;;;4878958;29;20051;-66
2021/12/17 11:15:24;;;;;;;5.90;1.88;;;5.20;99.90;;;;;;4878198;29;20072;-68
2021/12/17 11:17:55;;;;;;;3.58;1.67;;;5.20;99.90;;;;;;4876242;29;20060;-65
2021/12/17 11:20:28;;;;;;;8.52;2.85;;;5.20;99.90;;;;;;4880206;29;20187;-66
2021/12/17 11:23:04;;;;;;;10.57;3.22;;;5.20;99.90;;;;;;4876307;29;20049;-65
2021/12/17 11:25:32;;;;;;;5.00;1.10;;;5.20;99.90;;;;;;4879040;29;20057;-67
2021/12/17 11:28:00;;;;;;;7.47;1.42;;;5.20;99.90;;;;;;4879672;29;20203;-67
2021/12/17 11:30:30;;;;;;;6.85;1.40;;;5.20;99.90;;;;;;4877492;29;20195;-65
2021/12/17 11:33:01;;;;;;;18.58;2.08;;;5.20;99.90;;;;;;4878343;29;20060;-65
2021/12/17 11:35:30;;;;;;;12.02;3.85;;;5.20;99.90;;;;;;4875514;29;20045;-65
2021/12/17 11:38:04;;;;;;;4.88;1.42;;;5.20;99.90;;;;;;4876039;29;20128;-67
2021/12/17 11:40:31;;;;;;;7.20;1.20;;;5.20;99.90;;;;;;4878973;29;20063;-66
2021/12/17 11:43:16;;;;;;;6.25;3.30;;;5.20;99.90;;;;;;4879703;29;20060;-67
2021/12/17 11:45:45;;;;;;;5.32;1.65;;;5.20;99.90;;;;;;4876610;29;20064;-65
2021/12/17 11:48:22;;;;;;;2.95;1.33;;;5.20;99.90;;;;;;4878997;29;20140;-65
2021/12/17 11:51:12;;;;;;;8.73;1.85;;;5.20;99.90;;;;;;4878434;29;20053;-66
2021/12/17 11:53:57;;;;;;;6.47;1.70;;;5.20;99.90;;;;;;4877169;29;20057;-65
2021/12/17 11:56:45;;;;;;;5.88;2.05;;;5.20;99.90;;;;;;4878999;29;20076;-64
2021/12/17 11:59:24;;;;;;;7.45;1.50;;;5.20;99.90;;;;;;4879862;29;20053;-66
2021/12/17 12:02:01;;;;;;;7.25;1.80;;;5.20;99.90;;;;;;4873523;29;20872;-65
2021/12/17 12:04:34;;;;;;;12.02;1.67;;;5.20;99.90;;;;;;4877740;29;21640;-66
2021/12/17 12:07:09;;;;;;;5.88;2.67;;;5.20;99.90;;;;;;4879706;29;20051;-66
2021/12/17 12:10:03;;;;;;;9.23;2.38;;;5.20;99.90;;;;;;4875812;29;20052;-67
2021/12/17 12:12:34;;;;;;;7.68;2.00;;;5.20;99.90;;;;;;4878686;29;20048;-64
2021/12/17 12:15:24;;;;;;;9.85;2.78;;;5.20;99.90;;;;;;4876964;29;20057;-68
2021/12/17 12:18:37;;;;;;;5.80;1.63;;;5.20;99.90;;;;;;4869166;29;20061;-67
2021/12/17 12:21:04;;;;;;;9.20;2.17;;;5.20;99.90;;;;;;4820837;29;20485;-63
2021/12/17 12:23:32;;;;;;;12.98;2.63;;;5.20;99.90;;;;;;4867840;29;20132;-64
2021/12/17 12:26:04;;;;;;;6.13;1.80;;;5.20;99.90;;;;;;4875772;29;20060;-65
2021/12/17 12:28:49;;;;;;;5.93;2.00;;;5.20;99.90;;;;;;4877070;29;21502;-64
2021/12/17 12:31:23;;;;;;;7.13;2.67;;;5.20;99.90;;;;;;4877762;29;20790;-73
2021/12/17 12:37:03;;;;;;;5.80;1.50;;;5.10;99.90;;;;;;4878286;29;20060;-66
2021/12/17 12:39:39;;;;;;;9.27;1.05;;;5.10;99.90;;;;;;4872658;29;20052;-65
2021/12/17 12:42:17;;;;;;;9.35;1.52;;;5.10;99.90;;;;;;4875585;29;20059;-64
2021/12/17 12:44:44;;;;;;;12.90;2.17;;;5.10;99.90;;;;;;4877680;29;20058;-67
2021/12/17 12:47:31;;;;;;;6.75;1.50;;;5.10;99.90;;;;;;4878701;29;20104;-64
2021/12/17 12:50:06;;;;;;;5.20;1.27;;;5.10;99.90;;;;;;4877361;29;20080;-66
2021/12/17 12:52:43;;;;;;;7.80;3.00;;;5.10;99.90;;;;;;4878114;29;20063;-64
2021/12/17 12:55:13;;;;;;;6.18;1.67;;;5.10;99.90;;;;;;4879139;29;20068;-66
2021/12/17 12:57:47;;;;;;;5.95;2.00;;;5.00;99.90;;;;;;4878455;29;21532;-66
2021/12/17 13:00:30;;;;;;;5.25;1.20;;;5.00;99.90;;;;;;4876111;29;20057;-66
2021/12/17 13:03:02;;;;;;;10.10;1.65;;;5.00;99.90;;;;;;4878628;29;20059;-64
2021/12/17 13:05:31;;;;;;;13.70;1.60;;;5.00;99.90;;;;;;4878311;29;20332;-66
2021/12/17 13:08:00;;;;;;;14.90;2.08;;;5.00;99.90;;;;;;4879383;29;20053;-66
2021/12/17 13:10:30;;;;;;;4.93;1.35;;;5.00;99.90;;;;;;4877324;29;20056;-65
2021/12/17 13:13:17;;;;;;;12.27;2.20;;;5.00;99.90;;;;;;4879773;29;20052;-66
2021/12/17 13:16:38;;;;;;;13.68;4.22;;;4.90;99.90;;;;;;4878962;29;20726;-66
2021/12/17 13:24:20;;;;;;;4.78;1.35;;;4.90;99.90;;;;;;4877040;29;20060;-65
2021/12/17 13:26:48;;;;;;;7.13;1.58;;;4.90;99.90;;;;;;4877536;29;20064;-64
2021/12/17 13:29:45;;;;;;;5.07;1.50;;;4.90;99.90;;;;;;4877956;29;20060;-66
2021/12/17 13:32:15;;;;;;;11.52;1.77;;;4.90;99.90;;;;;;4864773;29;20472;-64
2021/12/17 13:34:51;;;;;;;8.65;3.10;;;4.90;99.90;;;;;;4878894;29;20084;-70
2021/12/17 13:37:26;;;;;;;11.75;1.85;;;4.80;99.90;;;;;;4876529;29;20055;-66
2021/12/17 13:39:58;;;;;;;5.05;1.00;;;4.90;99.90;;;;;;4873400;29;20053;-68
2021/12/17 13:42:29;;;;;;;5.35;1.45;;;4.90;99.90;;;;;;4867922;29;20482;-65
2021/12/17 13:45:08;;;;;;;2.67;1.20;;;4.80;99.90;;;;;;4875643;29;20067;-65
2021/12/17 13:47:48;;;;;;;7.10;1.80;;;4.80;99.90;;;;;;4878247;29;20051;-65
2021/12/17 13:50:40;;;;;;;4.05;2.38;;;4.80;99.90;;;;;;4872590;29;20752;-65
2021/12/17 13:53:15;;;;;;;8.77;1.95;;;4.80;99.90;;;;;;4874203;29;21023;-65
2021/12/17 13:56:03;;;;;;;5.45;2.13;;;4.80;99.90;;;;;;4876529;29;20108;-65
2021/12/17 13:58:32;;;;;;;7.82;1.63;;;4.80;99.90;;;;;;4875061;29;20064;-66
2021/12/17 14:01:01;;;;;;;4.32;1.40;;;4.80;99.90;;;;;;4875797;29;20075;-65
2021/12/17 14:03:33;;;;;;;9.70;1.33;;;4.70;99.90;;;;;;4877405;29;20049;-68
2021/12/17 14:06:18;;;;;;;7.43;1.65;;;4.70;99.90;;;;;;4876703;29;20627;-64
2021/12/17 14:08:46;;;;;;;5.68;1.70;;;4.70;99.90;;;;;;4874988;29;20056;-66
2021/12/17 14:11:31;;;;;;;9.70;2.33;;;4.70;99.90;;;;;;4877880;29;20052;-68
2021/12/17 14:14:26;;;;;;;9.05;2.08;;;4.70;99.90;;;;;;4878866;29;20048;-63
2021/12/17 14:16:58;;;;;;;6.13;1.67;;;4.70;99.90;;;;;;4874541;29;20063;-64
2021/12/17 14:20:01;;;;;;;5.88;1.63;;;4.70;99.90;;;;;;4874954;29;20844;-66
2021/12/17 14:22:33;;;;;;;12.07;1.83;;;4.60;99.90;;;;;;4854438;29;20060;-68
2021/12/17 14:25:23;;;;;;;4.40;1.05;;;4.70;99.90;;;;;;4880366;29;20399;-65
2021/12/17 14:27:51;;;;;;;4.93;2.22;;;4.60;99.90;;;;;;4888807;29;20048;-64
2021/12/17 14:30:34;;;;;;;8.88;2.13;;;4.60;99.90;;;;;;4887412;29;20510;-64
2021/12/17 14:33:16;;;;;;;5.22;1.65;;;4.60;99.90;;;;;;4886398;29;20459;-65
2021/12/17 14:35:52;;;;;;;4.88;1.17;;;4.60;99.90;;;;;;4885465;29;20052;-65
2021/12/17 14:38:32;;;;;;;4.50;1.83;;;4.60;99.90;;;;;;4890674;29;20056;-64
2021/12/17 14:41:01;;;;;;;4.40;1.67;;;4.60;99.90;;;;;;4882727;29;20047;-66
2021/12/17 14:43:38;;;;;;;4.95;1.15;;;4.60;99.90;;;;;;4889452;29;20047;-65
2021/12/17 14:46:22;;;;;;;11.05;1.77;;;4.60;99.90;;;;;;4886561;29;20053;-65
2021/12/17 15:02:50;;;;;;;5.22;1.33;;;4.60;99.90;;;;;;4891184;29;20167;-65
2021/12/17 15:05:21;;;;;;;6.35;1.35;;;4.60;99.90;;;;;;4900118;29;20340;-64
2021/12/17 15:07:49;;;;;;;5.13;1.10;;;4.60;99.90;;;;;;4891657;29;20407;-63
2021/12/17 15:10:19;;;;;;;5.82;2.40;;;4.60;99.90;;;;;;4889259;29;20048;-64
2021/12/17 15:12:47;;;;;;;7.47;2.38;;;4.60;99.90;;;;;;4886606;29;20064;-63
2021/12/17 15:15:20;;;;;;;5.25;1.60;;;4.60;99.90;;;;;;4886344;29;20053;-64
2021/12/17 15:17:50;;;;;;;15.68;2.65;;;4.60;99.90;;;;;;4888233;29;20063;-70
2021/12/17 15:20:21;;;;;;;8.75;1.98;;;4.60;99.90;;;;;;4887912;29;20040;-64
2021/12/17 15:22:49;;;;;;;5.30;1.67;;;4.60;99.90;;;;;;4888718;29;20059;-64
2021/12/17 15:25:17;;;;;;;5.88;1.52;;;4.60;99.90;;;;;;4886507;29;20086;-65
2021/12/17 15:27:44;;;;;;;5.80;1.52;;;4.60;99.90;;;;;;4887623;29;20052;-66
2021/12/17 15:30:15;;;;;;;4.03;1.25;;;4.50;99.90;;;;;;4888539;29;20056;-65
2021/12/17 15:32:43;;;;;;;6.43;3.05;;;4.60;99.90;;;;;;4886569;29;20056;-64
2021/12/17 15:35:12;;;;;;;7.45;1.83;;;4.60;99.90;;;;;;4887311;29;20044;-63
2021/12/17 15:37:40;;;;;;;11.40;1.77;;;4.60;99.90;;;;;;4881977;29;20044;-63
2021/12/17 15:40:08;;;;;;;7.22;1.52;;;4.60;99.90;;;;;;4889767;29;20056;-63
2021/12/17 15:42:35;;;;;;;6.80;1.35;;;4.60;99.90;;;;;;4887221;29;20769;-63
2021/12/17 15:45:04;;;;;;;9.55;2.08;;;4.60;99.90;;;;;;4893724;29;20041;-65
2021/12/17 15:47:31;;;;;;;10.85;1.63;;;4.60;99.90;;;;;;4903934;29;20055;-64
2021/12/17 15:49:58;;;;;;;5.28;1.45;;;4.60;99.90;;;;;;4891290;29;20104;-67
2021/12/17 15:52:29;;;;;;;8.50;1.77;;;4.60;99.90;;;;;;4889170;29;20424;-64
2021/12/17 15:54:56;;;;;;;7.40;1.55;;;4.50;99.90;;;;;;4890094;29;20128;-64
2021/12/17 15:57:23;;;;;;;6.60;1.50;;;4.50;99.90;;;;;;4887155;29;20052;-64
2021/12/17 15:59:50;;;;;;;10.40;3.03;;;4.50;99.90;;;;;;4888217;29;20045;-65
2021/12/17 16:02:18;;;;;;;3.63;1.60;;;4.50;99.90;;;;;;4888996;29;20048;-64
2021/12/17 16:04:46;;;;;;;6.10;1.30;;;4.50;99.90;;;;;;4891329;29;20721;-64
2021/12/17 16:07:14;;;;;;;7.95;1.52;;;4.50;99.90;;;;;;4890609;29;20123;-66
2021/12/17 16:22:51;;;;;;;5.22;1.98;;;4.60;99.90;;;;;;4893133;29;20052;-64
2021/12/17 16:25:18;;;;;;;12.40;1.50;;;4.60;99.90;;;;;;4888618;29;20124;-67
2021/12/17 16:27:45;;;;;;;6.82;1.80;;;4.60;99.90;;;;;;4888892;29;20061;-64
2021/12/17 16:30:13;;;;;;;7.55;1.77;;;4.50;99.90;;;;;;4889658;29;20045;-64
2021/12/17 16:32:40;;;;;;;6.70;1.15;;;4.50;99.90;;;;;;4890003;29;20040;-63
2021/12/17 16:35:08;;;;;;;13.90;3.45;;;4.50;99.90;;;;;;4889480;29;20041;-63
2021/12/17 16:37:35;;;;;;;9.85;2.42;;;4.50;99.90;;;;;;4892788;29;20048;-64
2021/12/17 16:40:04;;;;;;;6.53;1.95;;;4.50;99.90;;;;;;4887310;29;20105;-63
2021/12/17 16:42:31;;;;;;;15.82;3.45;;;4.50;99.90;;;;;;4891352;29;20339;-63
2021/12/17 16:47:33;;;;;;;12.48;2.10;;;4.50;99.90;;;;;;4898445;29;20049;-64
2021/12/17 16:50:03;;;;;;;10.95;1.73;;;4.60;99.90;;;;;;4887523;29;20128;-65
2021/12/17 16:52:30;;;;;;;5.63;1.50;;;4.50;99.90;;;;;;4889828;29;20049;-64
2021/12/17 16:55:00;;;;;;;5.07;1.52;;;4.50;99.90;;;;;;4890792;29;20053;-64
2021/12/17 16:57:27;;;;;;;5.20;1.73;;;4.50;99.90;;;;;;4896166;29;20052;-68
2021/12/17 16:59:54;;;;;;;5.47;1.50;;;4.50;99.90;;;;;;4887487;29;20104;-66
2021/12/17 17:02:22;;;;;;;3.70;1.45;;;4.50;99.90;;;;;;4895379;29;20041;-64
2021/12/17 17:04:50;;;;;;;4.10;1.58;;;4.50;99.90;;;;;;4890023;29;20076;-64
2021/12/17 17:07:17;;;;;;;4.72;2.08;;;4.50;99.90;;;;;;4890489;29;20048;-65
2021/12/17 17:09:44;;;;;;;4.85;1.17;;;4.50;99.90;;;;;;4890212;29;20053;-64